createdAt,value
2024-02-24T00:00:20.525Z,92.77
2024-02-24T00:03:09.041Z,92.34
2024-02-24T00:05:37.727Z,92.03
2024-02-24T00:08:07.013Z,91.91
2024-02-24T00:10:35.491Z,91.71
2024-02-24T00:13:05.131Z,91.73
2024-02-24T00:15:33.576Z,91.68
2024-02-24T00:18:02.146Z,91.67
2024-02-24T00:20:30.704Z,91.85
2024-02-24T00:22:59.692Z,91.92
2024-02-24T00:25:28.242Z,92.10
2024-02-24T00:27:56.963Z,92.89
2024-02-24T00:30:25.429Z,94.51
2024-02-24T00:32:54.226Z,95.02
2024-02-24T00:35:23.713Z,95.85
2024-02-24T00:37:52.175Z,95.16
2024-02-24T00:40:20.658Z,95.00
2024-02-24T00:42:49.256Z,94.97
2024-02-24T00:45:17.772Z,95.29
2024-02-24T00:47:46.393Z,95.47
2024-02-24T00:50:15.455Z,96.87
2024-02-24T00:52:44.375Z,96.63
2024-02-24T00:55:12.860Z,97.69
2024-02-24T00:57:41.391Z,97.87
2024-02-24T01:00:11.028Z,98.05
2024-02-24T01:02:39.506Z,98.93
2024-02-24T01:05:11.391Z,99.96
2024-02-24T01:07:39.814Z,99.97
2024-02-24T01:10:09.922Z,100.00
2024-02-24T01:12:38.394Z,99.88
2024-02-24T01:15:07.434Z,99.97
2024-02-24T01:17:36.006Z,99.99
2024-02-24T01:20:04.933Z,99.23
2024-02-24T01:22:33.426Z,98.35
2024-02-24T01:25:02.004Z,97.65
2024-02-24T01:27:30.438Z,96.50
2024-02-24T01:29:58.916Z,95.34
2024-02-24T01:32:27.572Z,94.40
2024-02-24T01:34:56.181Z,93.89
2024-02-24T01:37:25.191Z,93.49
2024-02-24T01:39:53.654Z,93.52
2024-02-24T01:42:22.153Z,93.97
2024-02-24T01:44:50.717Z,93.54
2024-02-24T01:47:19.908Z,93.31
2024-02-24T01:49:48.676Z,92.05
2024-02-24T01:52:17.918Z,90.86
2024-02-24T01:54:46.919Z,90.11
2024-02-24T01:57:15.572Z,89.75
2024-02-24T01:59:44.185Z,90.14
2024-02-24T02:02:12.763Z,90.53
2024-02-24T02:04:41.312Z,90.60
2024-02-24T02:07:09.958Z,90.95
2024-02-24T02:09:57.655Z,91.07
2024-02-24T02:12:27.082Z,91.11
2024-02-24T02:14:57.097Z,91.70
2024-02-24T02:17:25.806Z,91.85
2024-02-24T02:19:54.346Z,92.27
2024-02-24T02:22:25.946Z,92.79
2024-02-24T02:24:54.530Z,92.31
2024-02-24T02:27:23.168Z,91.93
2024-02-24T02:29:51.722Z,91.58
2024-02-24T02:32:20.246Z,90.37
2024-02-24T02:34:48.718Z,88.70
2024-02-24T02:37:17.203Z,87.79
2024-02-24T02:39:45.720Z,85.95
2024-02-24T02:42:14.247Z,82.13
2024-02-24T02:44:42.733Z,81.36
2024-02-24T02:47:19.561Z,80.04
2024-02-24T02:49:51.974Z,79.35
2024-02-24T02:52:20.480Z,79.26
2024-02-24T02:54:48.956Z,78.83
2024-02-24T02:57:20.630Z,78.12
2024-02-24T02:59:49.219Z,78.41
2024-02-24T03:02:18.007Z,78.61
2024-02-24T03:04:46.495Z,79.37
2024-02-24T03:07:15.054Z,79.91
2024-02-24T03:09:51.053Z,80.54
2024-02-24T03:12:19.727Z,80.87
2024-02-24T03:14:48.400Z,79.58
2024-02-24T03:17:16.925Z,78.43
2024-02-24T03:19:45.392Z,78.36
2024-02-24T03:22:13.821Z,78.43
2024-02-24T03:24:43.535Z,78.07
2024-02-24T03:27:15.138Z,77.10
2024-02-24T03:29:43.616Z,77.32
2024-02-24T03:32:12.263Z,77.26
2024-02-24T03:34:40.837Z,76.38
2024-02-24T03:37:09.310Z,75.19
2024-02-24T03:39:38.862Z,74.75
2024-02-24T03:42:07.322Z,74.09
2024-02-24T03:44:35.858Z,74.49
2024-02-24T03:47:04.478Z,73.65
2024-02-24T03:49:32.972Z,73.73
2024-02-24T03:52:01.400Z,73.25
2024-02-24T03:54:29.849Z,71.97
2024-02-24T03:56:58.359Z,71.44
2024-02-24T03:59:27.155Z,71.25
2024-02-24T04:01:55.577Z,71.39
2024-02-24T04:04:24.075Z,71.41
2024-02-24T04:06:52.753Z,71.57
2024-02-24T04:09:21.400Z,71.60
2024-02-24T04:11:52.301Z,72.28
2024-02-24T04:14:20.949Z,72.25
2024-02-24T04:16:49.591Z,72.37
2024-02-24T04:19:18.069Z,72.64
2024-02-24T04:21:46.612Z,72.45
2024-02-24T04:24:15.052Z,71.99
2024-02-24T04:26:43.673Z,72.03
2024-02-24T04:29:12.130Z,71.94
2024-02-24T04:31:40.581Z,72.01
2024-02-24T04:34:09.270Z,71.94
2024-02-24T04:36:44.367Z,71.66
2024-02-24T04:39:12.996Z,71.45
2024-02-24T04:41:41.637Z,71.50
2024-02-24T04:44:10.191Z,71.73
2024-02-24T04:46:39.865Z,71.65
2024-02-24T04:49:10.156Z,71.75
2024-02-24T04:51:39.796Z,71.63
2024-02-24T04:54:08.296Z,71.54
2024-02-24T04:56:36.780Z,71.65
2024-02-24T04:59:05.324Z,71.80
2024-02-24T05:01:33.885Z,71.96
2024-02-24T05:04:02.573Z,71.99
2024-02-24T05:06:31.150Z,71.35
2024-02-24T05:08:59.849Z,71.34
2024-02-24T05:11:28.758Z,71.31
2024-02-24T05:13:57.403Z,71.33
2024-02-24T05:16:26.213Z,70.71
2024-02-24T05:18:54.707Z,70.35
2024-02-24T05:21:23.539Z,70.73
2024-02-24T05:23:52.229Z,70.85
2024-02-24T05:26:28.356Z,71.11
2024-02-24T05:28:57.703Z,71.12
2024-02-24T05:31:26.189Z,71.38
2024-02-24T05:33:56.325Z,71.49
2024-02-24T05:36:25.744Z,71.68
2024-02-24T05:38:54.243Z,71.89
2024-02-24T05:41:22.832Z,72.16
2024-02-24T05:43:51.373Z,72.51
2024-02-24T05:46:19.938Z,72.28
2024-02-24T05:48:48.509Z,72.44
2024-02-24T05:51:20.515Z,72.50
2024-02-24T05:53:50.100Z,72.71
2024-02-24T05:56:19.018Z,72.91
2024-02-24T05:58:47.545Z,72.92
2024-02-24T06:01:16.167Z,73.11
2024-02-24T06:03:44.796Z,72.87
2024-02-24T06:06:13.502Z,72.55
2024-02-24T06:08:42.040Z,72.14
2024-02-24T06:11:12.671Z,72.00
2024-02-24T06:13:41.207Z,71.88
2024-02-24T06:16:12.012Z,71.86
2024-02-24T06:18:40.704Z,71.65
2024-02-24T06:21:10.335Z,70.89
2024-02-24T06:23:38.952Z,70.69
2024-02-24T06:26:07.601Z,70.74
2024-02-24T06:28:36.812Z,70.72
2024-02-24T06:31:05.750Z,70.92
2024-02-24T06:33:34.408Z,71.10
2024-02-24T06:36:06.566Z,70.99
2024-02-24T06:38:35.039Z,70.81
2024-02-24T06:41:04.543Z,70.93
2024-02-24T06:43:33.061Z,71.01
2024-02-24T06:46:01.592Z,71.14
2024-02-24T06:48:30.240Z,71.58
2024-02-24T06:50:58.967Z,71.56
2024-02-24T06:53:27.406Z,73.37
2024-02-24T06:55:58.259Z,72.68
2024-02-24T06:58:26.757Z,73.12
2024-02-24T07:00:55.323Z,72.30
2024-02-24T07:03:24.402Z,72.21
2024-02-24T07:05:53.062Z,72.29
2024-02-24T07:08:21.696Z,72.11
2024-02-24T07:10:50.974Z,72.45
2024-02-24T07:13:19.481Z,72.19
2024-02-24T07:15:47.926Z,71.98
2024-02-24T07:18:16.524Z,72.10
2024-02-24T07:20:46.217Z,71.54
2024-02-24T07:23:14.808Z,71.23
2024-02-24T07:25:43.270Z,71.09
2024-02-24T07:28:11.809Z,71.26
2024-02-24T07:30:40.704Z,71.43
2024-02-24T07:33:09.557Z,71.62
2024-02-24T07:35:38.205Z,71.75
2024-02-24T07:38:06.731Z,71.62
2024-02-24T07:40:35.841Z,71.57
2024-02-24T07:43:04.552Z,71.43
2024-02-24T07:45:33.012Z,71.60
2024-02-24T07:48:02.059Z,71.86
2024-02-24T07:50:30.689Z,72.02
2024-02-24T07:52:59.238Z,72.99
2024-02-24T07:55:27.791Z,71.56
2024-02-24T07:57:56.267Z,71.54
2024-02-24T08:00:26.334Z,71.30
2024-02-24T08:02:54.905Z,71.04
2024-02-24T08:05:23.532Z,70.87
2024-02-24T08:07:52.048Z,70.54
2024-02-24T08:10:20.602Z,70.10
2024-02-24T08:12:49.143Z,69.90
2024-02-24T08:15:17.549Z,69.90
2024-02-24T08:17:46.217Z,69.90
2024-02-24T08:20:15.025Z,69.25
2024-02-24T08:22:45.031Z,68.58
2024-02-24T08:25:13.529Z,67.92
2024-02-24T08:27:42.139Z,66.86
2024-02-24T08:30:11.255Z,66.47
2024-02-24T08:32:39.734Z,66.86
2024-02-24T08:35:09.473Z,66.93
2024-02-24T08:37:38.607Z,66.59
2024-02-24T08:40:10.505Z,66.40
2024-02-24T08:42:39.537Z,65.88
2024-02-24T08:45:08.220Z,65.03
2024-02-24T08:47:36.753Z,65.79
2024-02-24T08:50:06.359Z,65.57
2024-02-24T08:52:43.086Z,65.17
2024-02-24T08:55:18.478Z,64.61
2024-02-24T08:57:47.211Z,63.25
2024-02-24T09:00:16.198Z,62.98
2024-02-24T09:02:44.712Z,62.83
2024-02-24T09:05:13.605Z,61.30
2024-02-24T09:07:42.316Z,61.61
2024-02-24T09:10:13.883Z,61.33
2024-02-24T09:12:44.690Z,61.04
2024-02-24T09:15:13.206Z,60.63
2024-02-24T09:17:42.267Z,60.31
2024-02-24T09:20:12.250Z,60.63
2024-02-24T09:22:45.612Z,60.84
2024-02-24T09:25:18.224Z,61.02
2024-02-24T09:27:47.443Z,61.13
2024-02-24T09:30:15.972Z,61.10
2024-02-24T09:32:44.552Z,61.00
2024-02-24T09:35:13.219Z,61.10
2024-02-24T09:37:41.835Z,61.20
2024-02-24T09:40:10.611Z,61.35
2024-02-24T09:42:39.993Z,61.62
2024-02-24T09:45:17.554Z,62.25
2024-02-24T09:47:46.361Z,62.36
2024-02-24T09:50:15.990Z,62.27
2024-02-24T09:52:44.877Z,62.38
2024-02-24T09:55:13.594Z,62.27
2024-02-24T09:57:43.198Z,62.29
2024-02-24T10:00:12.445Z,62.34
2024-02-24T10:02:43.274Z,62.50
2024-02-24T10:05:11.882Z,62.44
2024-02-24T10:07:41.048Z,62.80
2024-02-24T10:10:12.095Z,63.15
2024-02-24T10:12:41.054Z,62.74
2024-02-24T10:15:10.073Z,62.79
2024-02-24T10:17:39.467Z,62.83
2024-02-24T10:20:09.684Z,62.87
2024-02-24T10:22:40.351Z,62.98
2024-02-24T10:25:08.996Z,63.11
2024-02-24T10:27:37.790Z,62.85
2024-02-24T10:30:09.370Z,63.07
2024-02-24T10:32:39.793Z,63.11
2024-02-24T10:35:09.895Z,63.21
2024-02-24T10:37:52.024Z,63.14
2024-02-24T10:40:27.292Z,62.96
2024-02-24T10:42:57.320Z,62.45
2024-02-24T10:45:28.501Z,62.61
2024-02-24T10:47:59.322Z,62.66
2024-02-24T10:50:30.840Z,62.65
2024-02-24T10:53:02.391Z,62.61
2024-02-24T10:55:32.736Z,62.32
2024-02-24T10:58:01.678Z,62.38
2024-02-24T11:00:36.122Z,62.67
2024-02-24T11:03:13.421Z,63.16
2024-02-24T11:05:47.371Z,62.91
2024-02-24T11:08:37.706Z,63.34
2024-02-24T11:11:10.101Z,63.05
2024-02-24T11:13:55.641Z,63.26
2024-02-24T11:16:37.543Z,63.65
2024-02-24T11:19:13.348Z,63.67
2024-02-24T11:22:02.968Z,62.87
2024-02-24T11:24:35.713Z,63.15
2024-02-24T11:27:06.296Z,62.31
2024-02-24T11:29:37.556Z,63.23
2024-02-24T11:32:14.990Z,63.66
2024-02-24T11:34:45.914Z,63.23
2024-02-24T11:37:19.343Z,62.89
2024-02-24T11:39:50.662Z,62.46
2024-02-24T11:42:21.813Z,62.87
2024-02-24T11:44:53.573Z,63.92
2024-02-24T11:47:25.320Z,64.53
2024-02-24T11:49:53.940Z,63.93
2024-02-24T11:52:26.030Z,63.20
2024-02-24T11:54:55.080Z,63.01
2024-02-24T11:57:24.941Z,62.92
2024-02-24T11:59:54.005Z,62.57
2024-02-24T12:02:22.764Z,62.50
2024-02-24T12:04:51.469Z,62.49
2024-02-24T12:07:20.092Z,62.14
2024-02-24T12:09:51.555Z,62.06
2024-02-24T12:12:21.462Z,61.81
2024-02-24T12:18:17.493Z,62.13
2024-02-24T12:20:50.008Z,62.17
2024-02-24T12:23:18.971Z,61.87
2024-02-24T12:25:47.671Z,61.71
2024-02-24T12:28:20.154Z,61.82
2024-02-24T12:30:48.685Z,61.48
2024-02-24T12:33:18.802Z,61.18
2024-02-24T12:35:49.572Z,61.06
2024-02-24T12:38:19.233Z,60.82
2024-02-24T12:40:50.956Z,60.69
2024-02-24T12:43:19.391Z,60.41
2024-02-24T12:45:52.997Z,60.74
2024-02-24T12:48:21.846Z,60.82
2024-02-24T12:50:51.061Z,60.46
2024-02-24T12:53:20.936Z,60.60
2024-02-24T12:55:52.711Z,60.98
2024-02-24T12:58:22.314Z,61.17
2024-02-24T13:00:54.281Z,61.06
2024-02-24T13:03:23.478Z,61.05
2024-02-24T13:05:57.516Z,61.16
2024-02-24T13:08:27.066Z,61.41
2024-02-24T13:10:59.333Z,61.15
2024-02-24T13:13:28.459Z,61.25
2024-02-24T13:15:56.977Z,61.31
2024-02-24T13:18:25.594Z,61.23
2024-02-24T13:20:56.902Z,61.23
2024-02-24T13:23:25.400Z,61.24
2024-02-24T13:25:53.864Z,60.91
2024-02-24T13:28:22.329Z,60.67
2024-02-24T13:30:50.887Z,60.86
2024-02-24T13:33:21.978Z,60.93
2024-02-24T13:35:50.734Z,61.03
2024-02-24T13:38:20.485Z,61.00
2024-02-24T13:40:49.372Z,61.15
2024-02-24T13:43:18.627Z,61.26
2024-02-24T13:45:47.394Z,61.39
2024-02-24T13:48:16.050Z,61.31
2024-02-24T13:50:44.739Z,61.58
2024-02-24T13:53:13.510Z,61.70
2024-02-24T13:55:41.983Z,61.63
2024-02-24T13:58:12.660Z,61.62
2024-02-24T14:00:41.229Z,61.77
2024-02-24T14:03:11.867Z,61.91
2024-02-24T14:05:41.506Z,62.05
2024-02-24T14:08:13.169Z,62.67
2024-02-24T14:10:43.890Z,63.12
2024-02-24T14:13:14.050Z,63.42
2024-02-24T14:15:48.264Z,64.29
2024-02-24T14:18:16.879Z,63.78
2024-02-24T14:20:45.442Z,63.66
2024-02-24T14:23:13.924Z,63.48
2024-02-24T14:25:42.532Z,64.05
2024-02-24T14:28:14.314Z,64.04
2024-02-24T14:30:46.601Z,63.83
2024-02-24T14:33:17.817Z,63.32
2024-02-24T14:35:46.815Z,63.45
2024-02-24T14:38:16.855Z,63.19
2024-02-24T14:40:50.402Z,63.24
2024-02-24T14:43:19.796Z,63.43
2024-02-24T14:45:48.291Z,63.41
2024-02-24T14:48:19.858Z,63.45
2024-02-24T14:50:52.512Z,63.67
2024-02-24T14:53:21.119Z,64.73
2024-02-24T14:55:49.578Z,64.42
2024-02-24T14:58:18.256Z,64.32
2024-02-24T15:00:46.784Z,64.43
2024-02-24T15:03:15.411Z,64.48
2024-02-24T15:05:44.457Z,64.73
2024-02-24T15:08:13.155Z,64.70
2024-02-24T15:10:41.546Z,64.92
2024-02-24T15:13:10.397Z,64.97
2024-02-24T15:15:40.232Z,65.30
2024-02-24T15:18:11.212Z,65.58
2024-02-24T15:20:40.548Z,65.74
2024-02-24T15:23:08.964Z,65.92
2024-02-24T15:25:37.601Z,66.13
2024-02-24T15:28:09.634Z,66.28
2024-02-24T15:30:38.702Z,66.50
2024-02-24T15:33:11.894Z,66.54
2024-02-24T15:35:41.727Z,66.83
2024-02-24T15:38:10.293Z,67.22
2024-02-24T15:40:42.062Z,67.83
2024-02-24T15:43:14.034Z,67.72
2024-02-24T15:45:42.789Z,67.66
2024-02-24T15:48:11.944Z,67.78
2024-02-24T15:50:40.596Z,68.00
2024-02-24T15:53:09.684Z,68.11
2024-02-24T15:55:38.196Z,68.34
2024-02-24T15:58:06.791Z,68.51
2024-02-24T16:00:39.321Z,68.64
2024-02-24T16:03:12.027Z,69.43
2024-02-24T16:05:41.257Z,70.26
2024-02-24T16:08:12.545Z,70.22
2024-02-24T16:10:43.996Z,70.87
2024-02-24T16:13:14.860Z,71.52
2024-02-24T16:15:45.976Z,71.20
2024-02-24T16:18:18.113Z,71.95
2024-02-24T16:20:47.114Z,72.08
2024-02-24T16:23:17.350Z,72.10
2024-02-24T16:25:46.345Z,72.53
2024-02-24T16:28:14.908Z,73.83
2024-02-24T16:30:43.408Z,73.77
2024-02-24T16:33:12.016Z,74.24
2024-02-24T16:35:40.880Z,74.34
2024-02-24T16:38:14.302Z,74.66
2024-02-24T16:40:43.143Z,74.75
2024-02-24T16:43:13.226Z,74.97
2024-02-24T16:45:41.851Z,75.50
2024-02-24T16:48:10.886Z,75.74
2024-02-24T16:50:42.655Z,75.89
2024-02-24T16:53:11.146Z,76.23
2024-02-24T16:55:39.776Z,76.50
2024-02-24T16:58:08.359Z,76.78
2024-02-24T17:00:37.030Z,77.03
2024-02-24T17:03:12.867Z,77.63
2024-02-24T17:05:42.714Z,78.21
2024-02-24T17:08:13.519Z,78.45
2024-02-24T17:10:42.293Z,79.03
2024-02-24T17:13:12.769Z,80.64
2024-02-24T17:15:41.366Z,81.27
2024-02-24T17:18:17.566Z,82.26
2024-02-24T17:20:47.284Z,82.75
2024-02-24T17:23:16.018Z,83.29
2024-02-24T17:25:44.642Z,84.19
2024-02-24T17:28:13.519Z,87.26
2024-02-24T17:30:42.106Z,89.07
2024-02-24T17:33:12.763Z,88.16
2024-02-24T17:35:44.311Z,89.78
2024-02-24T17:38:13.212Z,92.37
2024-02-24T17:40:41.693Z,92.41
2024-02-24T17:43:10.198Z,92.60
2024-02-24T17:45:38.771Z,93.74
2024-02-24T17:48:11.318Z,94.51
2024-02-24T17:50:39.993Z,99.33
2024-02-24T17:53:11.325Z,99.95
2024-02-24T17:55:39.918Z,100.00
2024-02-24T17:58:08.666Z,100.00
2024-02-24T18:00:37.249Z,100.00
2024-02-24T18:03:06.852Z,100.00
2024-02-24T18:05:35.791Z,100.00
2024-02-24T18:08:04.924Z,100.00
2024-02-24T18:10:33.588Z,100.00
2024-02-24T18:13:02.430Z,100.00
2024-02-24T18:15:31.404Z,100.00
2024-02-24T18:18:00.291Z,100.00
2024-02-24T18:20:29.089Z,100.00
2024-02-24T18:23:00.552Z,100.00
2024-02-24T18:25:31.486Z,100.00
2024-02-24T18:28:05.048Z,100.00
2024-02-24T18:30:35.753Z,100.00
2024-02-24T18:33:04.727Z,100.00
2024-02-24T18:35:34.134Z,100.00
2024-02-24T18:38:02.754Z,100.00
2024-02-24T18:40:34.434Z,100.00
2024-02-24T18:43:02.986Z,100.00
2024-02-24T18:45:31.720Z,100.00
2024-02-24T18:48:00.403Z,100.00
2024-02-24T18:50:29.023Z,100.00
2024-02-24T18:52:57.575Z,100.00
2024-02-24T18:55:31.198Z,100.00
2024-02-24T18:58:00.407Z,100.00
2024-02-24T19:00:29.351Z,100.00
2024-02-24T19:02:57.933Z,100.00
2024-02-24T19:05:26.862Z,100.00
2024-02-24T19:07:55.591Z,100.00
2024-02-24T19:10:24.104Z,100.00
2024-02-24T19:12:53.191Z,100.00
2024-02-24T19:15:22.699Z,100.00
2024-02-24T19:17:51.695Z,100.00
2024-02-24T19:20:22.609Z,100.00
2024-02-24T19:22:51.908Z,100.00
2024-02-24T19:25:22.043Z,100.00
2024-02-24T19:27:51.586Z,100.00
2024-02-24T19:30:20.203Z,100.00
2024-02-24T19:32:49.104Z,100.00
2024-02-24T19:35:20.718Z,100.00
2024-02-24T19:37:49.731Z,100.00
2024-02-24T19:40:20.716Z,100.00
2024-02-24T19:42:49.400Z,100.00
2024-02-24T19:45:19.548Z,100.00
2024-02-24T19:47:48.256Z,100.00
2024-02-24T19:50:18.051Z,100.00
2024-02-24T19:52:46.770Z,100.00
2024-02-24T19:55:17.414Z,100.00
2024-02-24T19:57:46.853Z,100.00
2024-02-24T20:00:16.182Z,100.00
2024-02-24T20:02:44.895Z,100.00
2024-02-24T20:05:14.631Z,100.00
2024-02-24T20:07:46.418Z,100.00
2024-02-24T20:10:15.678Z,100.00
2024-02-24T20:12:44.223Z,100.00
2024-02-24T20:15:13.153Z,100.00
2024-02-24T20:17:41.787Z,100.00
2024-02-24T20:20:11.061Z,100.00
2024-02-24T20:22:39.762Z,100.00
2024-02-24T20:25:08.658Z,100.00
2024-02-24T20:27:37.238Z,100.00
2024-02-24T20:30:06.527Z,100.00
2024-02-24T20:32:35.104Z,100.00
2024-02-24T20:35:06.363Z,100.00
2024-02-24T20:37:34.838Z,100.00
2024-02-24T20:40:05.007Z,100.00
2024-02-24T20:42:33.543Z,100.00
2024-02-24T20:45:02.396Z,100.00
2024-02-24T20:47:31.130Z,100.00
2024-02-24T20:49:59.699Z,100.00
2024-02-24T20:52:28.244Z,100.00
2024-02-24T20:54:56.833Z,100.00
2024-02-24T20:57:32.375Z,100.00
2024-02-24T21:00:05.787Z,100.00
2024-02-24T21:02:34.516Z,100.00
2024-02-24T21:05:04.597Z,100.00
2024-02-24T21:07:33.162Z,100.00
2024-02-24T21:10:01.717Z,100.00
2024-02-24T21:12:30.313Z,100.00
2024-02-24T21:14:59.217Z,100.00
2024-02-24T21:17:28.648Z,100.00
2024-02-24T21:20:04.757Z,100.00
2024-02-24T21:22:33.721Z,100.00
2024-02-24T21:25:06.765Z,100.00
2024-02-24T21:27:35.901Z,100.00
2024-02-24T21:30:04.884Z,100.00
2024-02-24T21:32:33.680Z,100.00
2024-02-24T21:35:04.031Z,100.00
2024-02-24T21:37:34.308Z,100.00
2024-02-24T21:40:04.597Z,100.00
2024-02-24T21:42:33.736Z,100.00
2024-02-24T21:45:03.898Z,100.00
2024-02-24T21:47:33.098Z,100.00
2024-02-24T21:50:01.761Z,100.00
2024-02-24T21:52:30.593Z,100.00
2024-02-24T21:55:02.374Z,100.00
2024-02-24T21:57:33.461Z,100.00
2024-02-24T22:00:02.291Z,100.00
2024-02-24T22:02:30.924Z,100.00
2024-02-24T22:04:59.992Z,100.00
2024-02-24T22:07:33.967Z,100.00
2024-02-24T22:10:05.619Z,100.00
2024-02-24T22:12:34.219Z,100.00
2024-02-24T22:15:03.334Z,100.00
2024-02-24T22:17:32.415Z,100.00
2024-02-24T22:20:01.136Z,100.00
2024-02-24T22:22:30.086Z,100.00
2024-02-24T22:24:58.722Z,100.00
2024-02-24T22:27:29.261Z,100.00
2024-02-24T22:30:08.420Z,100.00
2024-02-24T22:32:45.171Z,100.00
2024-02-24T22:35:14.112Z,100.00
2024-02-24T22:37:42.772Z,100.00
2024-02-24T22:40:11.823Z,100.00
2024-02-24T22:42:40.515Z,100.00
2024-02-24T22:45:10.280Z,100.00
2024-02-24T22:47:42.677Z,100.00
2024-02-24T22:50:12.747Z,100.00
2024-02-24T22:52:44.378Z,100.00
2024-02-24T22:55:15.497Z,100.00
2024-02-24T22:57:44.142Z,100.00
2024-02-24T23:00:15.025Z,100.00
2024-02-24T23:02:46.067Z,100.00
2024-02-24T23:05:14.693Z,100.00
2024-02-24T23:07:45.453Z,100.00
2024-02-24T23:10:22.996Z,100.00
2024-02-24T23:12:51.515Z,100.00
2024-02-24T23:15:20.120Z,100.00
2024-02-24T23:17:51.096Z,100.00
2024-02-24T23:20:19.736Z,100.00
2024-02-24T23:22:48.255Z,100.00
2024-02-24T23:25:21.805Z,100.00
2024-02-24T23:27:50.342Z,100.00
2024-02-24T23:30:19.056Z,100.00
2024-02-24T23:32:48.919Z,100.00
2024-02-24T23:35:17.732Z,100.00
2024-02-24T23:37:47.155Z,100.00
2024-02-24T23:40:15.774Z,100.00
2024-02-24T23:42:44.271Z,100.00
2024-02-24T23:45:12.920Z,100.00
2024-02-24T23:47:42.866Z,100.00
2024-02-24T23:50:11.620Z,100.00
2024-02-24T23:52:42.700Z,100.00
2024-02-24T23:55:11.850Z,100.00
2024-02-24T23:57:40.386Z,100.00
